sensor_id;sensor_type;location;lat;lon;timestamp;temperature;humidity
13976;DHT22;7062;49.792;9.946;2022-09-27T00:00:21;11.30;99.90
13976;DHT22;7062;49.792;9.946;2022-09-27T00:02:46;11.30;99.90
13976;DHT22;7062;49.792;9.946;2022-09-27T00:05:13;11.30;99.90
13976;DHT22;7062;49.792;9.946;2022-09-27T00:07:39;11.30;99.90
13976;DHT22;7062;49.792;9.946;2022-09-27T00:10:05;11.40;99.90
13976;DHT22;7062;49.792;9.946;2022-09-27T00:12:31;11.20;99.90
13976;DHT22;7062;49.792;9.946;2022-09-27T00:14:57;11.30;99.90
13976;DHT22;7062;49.792;9.946;2022-09-27T00:17:22;11.30;99.90
13976;DHT22;7062;49.792;9.946;2022-09-27T00:19:48;11.30;99.90
13976;DHT22;7062;49.792;9.946;2022-09-27T00:22:14;11.30;99.90
13976;DHT22;7062;49.792;9.946;2022-09-27T00:24:39;11.20;99.90
13976;DHT22;7062;49.792;9.946;2022-09-27T00:27:05;11.30;99.90
13976;DHT22;7062;49.792;9.946;2022-09-27T00:29:30;11.20;99.90
13976;DHT22;7062;49.792;9.946;2022-09-27T00:31:56;11.20;99.90
13976;DHT22;7062;49.792;9.946;2022-09-27T00:34:23;11.20;99.90
13976;DHT22;7062;49.792;9.946;2022-09-27T00:36:50;11.20;99.90
13976;DHT22;7062;49.792;9.946;2022-09-27T00:39:16;11.20;99.90
13976;DHT22;7062;49.792;9.946;2022-09-27T00:41:42;11.20;99.90
13976;DHT22;7062;49.792;9.946;2022-09-27T00:49:51;11.20;99.90
13976;DHT22;7062;49.792;9.946;2022-09-27T00:52:26;11.20;99.90
13976;DHT22;7062;49.792;9.946;2022-09-27T00:54:58;11.20;99.90
13976;DHT22;7062;49.792;9.946;2022-09-27T00:57:26;11.10;99.90
13976;DHT22;7062;49.792;9.946;2022-09-27T00:59:57;11.10;99.90
13976;DHT22;7062;49.792;9.946;2022-09-27T01:02:25;11.10;99.90
13976;DHT22;7062;49.792;9.946;2022-09-27T01:04:52;11.20;99.90
13976;DHT22;7062;49.792;9.946;2022-09-27T01:07:18;11.10;99.90
13976;DHT22;7062;49.792;9.946;2022-09-27T01:09:43;11.10;99.90
13976;DHT22;7062;49.792;9.946;2022-09-27T01:12:25;11.10;99.90
13976;DHT22;7062;49.792;9.946;2022-09-27T01:41:59;11.20;99.90
13976;DHT22;7062;49.792;9.946;2022-09-27T01:44:51;11.20;99.90
13976;DHT22;7062;49.792;9.946;2022-09-27T01:47:21;11.20;99.90
13976;DHT22;7062;49.792;9.946;2022-09-27T01:52:55;11.20;99.90
13976;DHT22;7062;49.792;9.946;2022-09-27T01:55:29;11.10;99.90
13976;DHT22;7062;49.792;9.946;2022-09-27T01:58:43;11.20;99.90
13976;DHT22;7062;49.792;9.946;2022-09-27T02:00:50;11.20;99.90
13976;DHT22;7062;49.792;9.946;2022-09-27T02:03:24;11.20;99.90
13976;DHT22;7062;49.792;9.946;2022-09-27T02:05:54;11.10;99.90
13976;DHT22;7062;49.792;9.946;2022-09-27T02:08:37;11.20;99.90
13976;DHT22;7062;49.792;9.946;2022-09-27T02:11:09;11.10;99.90
13976;DHT22;7062;49.792;9.946;2022-09-27T02:14:10;11.10;99.90
13976;DHT22;7062;49.792;9.946;2022-09-27T02:16:50;11.10;99.90
13976;DHT22;7062;49.792;9.946;2022-09-27T02:19:46;11.10;99.90
13976;DHT22;7062;49.792;9.946;2022-09-27T02:27:50;11.10;99.90
13976;DHT22;7062;49.792;9.946;2022-09-27T02:30:17;11.10;99.90
13976;DHT22;7062;49.792;9.946;2022-09-27T02:32:42;11.10;99.90
13976;DHT22;7062;49.792;9.946;2022-09-27T02:35:18;11.10;99.90
13976;DHT22;7062;49.792;9.946;2022-09-27T02:37:46;11.00;99.90
13976;DHT22;7062;49.792;9.946;2022-09-27T02:40:12;11.10;99.90
13976;DHT22;7062;49.792;9.946;2022-09-27T02:42:39;11.00;99.90
13976;DHT22;7062;49.792;9.946;2022-09-27T02:45:05;10.90;99.90
13976;DHT22;7062;49.792;9.946;2022-09-27T02:53:31;11.00;99.90
13976;DHT22;7062;49.792;9.946;2022-09-27T02:59:08;11.00;99.90
13976;DHT22;7062;49.792;9.946;2022-09-27T03:07:06;10.90;99.90
13976;DHT22;7062;49.792;9.946;2022-09-27T03:09:47;10.90;99.90
13976;DHT22;7062;49.792;9.946;2022-09-27T03:12:14;10.90;99.90
13976;DHT22;7062;49.792;9.946;2022-09-27T03:14:45;11.00;99.90
13976;DHT22;7062;49.792;9.946;2022-09-27T03:17:11;10.90;99.90
13976;DHT22;7062;49.792;9.946;2022-09-27T03:19:36;11.00;99.90
13976;DHT22;7062;49.792;9.946;2022-09-27T03:22:02;11.00;99.90
13976;DHT22;7062;49.792;9.946;2022-09-27T03:24:28;11.00;99.90
13976;DHT22;7062;49.792;9.946;2022-09-27T03:26:53;11.00;99.90
13976;DHT22;7062;49.792;9.946;2022-09-27T03:29:19;10.90;99.90
13976;DHT22;7062;49.792;9.946;2022-09-27T03:31:44;11.00;99.90
13976;DHT22;7062;49.792;9.946;2022-09-27T03:34:10;10.90;99.90
13976;DHT22;7062;49.792;9.946;2022-09-27T03:36:36;10.90;99.90
13976;DHT22;7062;49.792;9.946;2022-09-27T03:39:01;11.00;99.90
13976;DHT22;7062;49.792;9.946;2022-09-27T03:41:27;11.00;99.90
13976;DHT22;7062;49.792;9.946;2022-09-27T03:43:52;11.00;99.90
13976;DHT22;7062;49.792;9.946;2022-09-27T03:46:21;10.90;99.90
13976;DHT22;7062;49.792;9.946;2022-09-27T03:48:46;10.90;99.90
13976;DHT22;7062;49.792;9.946;2022-09-27T03:51:12;10.90;99.90
13976;DHT22;7062;49.792;9.946;2022-09-27T03:53:37;10.80;99.90
13976;DHT22;7062;49.792;9.946;2022-09-27T03:56:03;10.80;99.90
13976;DHT22;7062;49.792;9.946;2022-09-27T03:58:29;10.80;99.90
13976;DHT22;7062;49.792;9.946;2022-09-27T04:00:54;10.80;99.90
13976;DHT22;7062;49.792;9.946;2022-09-27T04:03:20;10.90;99.90
13976;DHT22;7062;49.792;9.946;2022-09-27T04:05:46;10.80;99.90
13976;DHT22;7062;49.792;9.946;2022-09-27T04:08:11;10.70;99.90
13976;DHT22;7062;49.792;9.946;2022-09-27T04:10:38;10.70;99.90
13976;DHT22;7062;49.792;9.946;2022-09-27T04:13:04;10.70;99.90
13976;DHT22;7062;49.792;9.946;2022-09-27T04:15:30;10.70;99.90
13976;DHT22;7062;49.792;9.946;2022-09-27T04:17:55;10.70;99.90
13976;DHT22;7062;49.792;9.946;2022-09-27T04:20:21;10.70;99.90
13976;DHT22;7062;49.792;9.946;2022-09-27T04:22:46;10.70;99.90
13976;DHT22;7062;49.792;9.946;2022-09-27T04:25:12;10.70;99.90
13976;DHT22;7062;49.792;9.946;2022-09-27T04:27:42;10.70;99.90
13976;DHT22;7062;49.792;9.946;2022-09-27T04:30:09;10.70;99.90
13976;DHT22;7062;49.792;9.946;2022-09-27T04:32:36;10.60;99.90
13976;DHT22;7062;49.792;9.946;2022-09-27T04:35:05;10.50;99.90
13976;DHT22;7062;49.792;9.946;2022-09-27T04:37:49;10.60;99.90
13976;DHT22;7062;49.792;9.946;2022-09-27T04:40:15;10.60;99.90
13976;DHT22;7062;49.792;9.946;2022-09-27T04:42:41;10.60;99.90
13976;DHT22;7062;49.792;9.946;2022-09-27T04:45:07;10.60;99.90
13976;DHT22;7062;49.792;9.946;2022-09-27T04:47:32;10.60;99.90
13976;DHT22;7062;49.792;9.946;2022-09-27T04:49:59;10.60;99.90
13976;DHT22;7062;49.792;9.946;2022-09-27T04:52:25;10.60;99.90
13976;DHT22;7062;49.792;9.946;2022-09-27T04:54:50;10.70;99.90
13976;DHT22;7062;49.792;9.946;2022-09-27T04:57:16;10.60;99.90
13976;DHT22;7062;49.792;9.946;2022-09-27T04:59:42;10.60;99.90
13976;DHT22;7062;49.792;9.946;2022-09-27T05:02:08;10.70;99.90
13976;DHT22;7062;49.792;9.946;2022-09-27T05:04:34;10.60;99.90
13976;DHT22;7062;49.792;9.946;2022-09-27T05:06:59;10.70;99.90
13976;DHT22;7062;49.792;9.946;2022-09-27T05:09:25;10.70;99.90
13976;DHT22;7062;49.792;9.946;2022-09-27T05:11:51;10.70;99.90
13976;DHT22;7062;49.792;9.946;2022-09-27T05:14:16;10.70;99.90
13976;DHT22;7062;49.792;9.946;2022-09-27T05:16:42;10.70;99.90
13976;DHT22;7062;49.792;9.946;2022-09-27T05:19:08;10.70;99.90
13976;DHT22;7062;49.792;9.946;2022-09-27T05:21:33;10.60;99.90
13976;DHT22;7062;49.792;9.946;2022-09-27T05:23:59;10.60;99.90
13976;DHT22;7062;49.792;9.946;2022-09-27T05:26:25;10.70;99.90
13976;DHT22;7062;49.792;9.946;2022-09-27T05:28:51;10.70;99.90
13976;DHT22;7062;49.792;9.946;2022-09-27T05:31:17;10.60;99.90
13976;DHT22;7062;49.792;9.946;2022-09-27T05:33:42;10.60;99.90
13976;DHT22;7062;49.792;9.946;2022-09-27T05:36:08;10.70;99.90
13976;DHT22;7062;49.792;9.946;2022-09-27T05:38:34;10.60;99.90
13976;DHT22;7062;49.792;9.946;2022-09-27T05:41:01;10.60;99.90
13976;DHT22;7062;49.792;9.946;2022-09-27T05:43:28;10.60;99.90
13976;DHT22;7062;49.792;9.946;2022-09-27T05:45:54;10.50;99.90
13976;DHT22;7062;49.792;9.946;2022-09-27T05:48:19;10.50;99.90
13976;DHT22;7062;49.792;9.946;2022-09-27T05:50:46;10.50;99.90
13976;DHT22;7062;49.792;9.946;2022-09-27T05:53:12;10.60;99.90
13976;DHT22;7062;49.792;9.946;2022-09-27T05:55:38;10.50;99.90
13976;DHT22;7062;49.792;9.946;2022-09-27T05:58:06;10.50;99.90
13976;DHT22;7062;49.792;9.946;2022-09-27T06:00:33;10.50;99.90
13976;DHT22;7062;49.792;9.946;2022-09-27T06:03:00;10.60;99.90
13976;DHT22;7062;49.792;9.946;2022-09-27T06:05:28;10.50;99.90
13976;DHT22;7062;49.792;9.946;2022-09-27T06:08:13;10.50;99.90
13976;DHT22;7062;49.792;9.946;2022-09-27T06:10:39;10.40;99.90
13976;DHT22;7062;49.792;9.946;2022-09-27T06:13:14;10.40;99.90
13976;DHT22;7062;49.792;9.946;2022-09-27T06:15:42;10.40;99.90
13976;DHT22;7062;49.792;9.946;2022-09-27T06:18:13;10.40;99.90
13976;DHT22;7062;49.792;9.946;2022-09-27T06:20:41;10.40;99.90
13976;DHT22;7062;49.792;9.946;2022-09-27T06:23:16;10.30;99.90
13976;DHT22;7062;49.792;9.946;2022-09-27T06:25:43;10.40;99.90
13976;DHT22;7062;49.792;9.946;2022-09-27T06:28:09;10.40;99.90
13976;DHT22;7062;49.792;9.946;2022-09-27T06:30:47;10.50;99.90
13976;DHT22;7062;49.792;9.946;2022-09-27T06:33:18;10.60;99.90
13976;DHT22;7062;49.792;9.946;2022-09-27T06:35:44;10.70;99.90
13976;DHT22;7062;49.792;9.946;2022-09-27T06:38:12;10.80;99.90
13976;DHT22;7062;49.792;9.946;2022-09-27T06:40:38;10.90;99.90
13976;DHT22;7062;49.792;9.946;2022-09-27T06:43:06;10.90;99.90
13976;DHT22;7062;49.792;9.946;2022-09-27T06:45:36;10.90;99.90
13976;DHT22;7062;49.792;9.946;2022-09-27T06:48:02;10.80;99.90
13976;DHT22;7062;49.792;9.946;2022-09-27T06:50:29;10.70;99.90
13976;DHT22;7062;49.792;9.946;2022-09-27T06:52:57;10.70;99.90
13976;DHT22;7062;49.792;9.946;2022-09-27T06:55:23;10.60;99.90
13976;DHT22;7062;49.792;9.946;2022-09-27T06:57:52;10.70;99.90
13976;DHT22;7062;49.792;9.946;2022-09-27T07:00:36;10.70;99.90
13976;DHT22;7062;49.792;9.946;2022-09-27T07:03:02;10.70;99.90
13976;DHT22;7062;49.792;9.946;2022-09-27T07:05:29;10.80;99.90
13976;DHT22;7062;49.792;9.946;2022-09-27T07:07:58;10.90;99.90
13976;DHT22;7062;49.792;9.946;2022-09-27T07:10:26;10.90;99.90
13976;DHT22;7062;49.792;9.946;2022-09-27T07:12:52;10.90;99.90
13976;DHT22;7062;49.792;9.946;2022-09-27T07:15:18;11.00;99.90
13976;DHT22;7062;49.792;9.946;2022-09-27T07:17:57;11.10;99.90
13976;DHT22;7062;49.792;9.946;2022-09-27T07:20:24;11.20;99.90
13976;DHT22;7062;49.792;9.946;2022-09-27T07:22:50;11.20;99.90
13976;DHT22;7062;49.792;9.946;2022-09-27T07:25:16;11.20;99.90
13976;DHT22;7062;49.792;9.946;2022-09-27T07:27:42;11.20;99.90
13976;DHT22;7062;49.792;9.946;2022-09-27T07:30:09;11.10;99.90
13976;DHT22;7062;49.792;9.946;2022-09-27T07:32:36;11.00;99.90
13976;DHT22;7062;49.792;9.946;2022-09-27T07:35:06;11.10;99.90
13976;DHT22;7062;49.792;9.946;2022-09-27T07:37:36;11.10;99.90
13976;DHT22;7062;49.792;9.946;2022-09-27T07:40:04;11.10;99.90
13976;DHT22;7062;49.792;9.946;2022-09-27T07:42:31;11.20;99.90
13976;DHT22;7062;49.792;9.946;2022-09-27T07:44:57;11.20;99.90
13976;DHT22;7062;49.792;9.946;2022-09-27T07:47:23;11.20;99.90
13976;DHT22;7062;49.792;9.946;2022-09-27T07:49:50;11.20;99.90
13976;DHT22;7062;49.792;9.946;2022-09-27T07:52:17;11.20;99.90
13976;DHT22;7062;49.792;9.946;2022-09-27T07:54:44;11.20;99.90
13976;DHT22;7062;49.792;9.946;2022-09-27T07:57:10;11.20;99.90
13976;DHT22;7062;49.792;9.946;2022-09-27T07:59:35;11.20;99.90
13976;DHT22;7062;49.792;9.946;2022-09-27T08:02:01;11.20;99.90
13976;DHT22;7062;49.792;9.946;2022-09-27T08:04:27;11.30;99.90
13976;DHT22;7062;49.792;9.946;2022-09-27T08:06:53;11.20;99.90
13976;DHT22;7062;49.792;9.946;2022-09-27T08:09:19;11.20;99.90
13976;DHT22;7062;49.792;9.946;2022-09-27T08:11:44;11.30;99.90
13976;DHT22;7062;49.792;9.946;2022-09-27T08:14:10;11.50;99.90
13976;DHT22;7062;49.792;9.946;2022-09-27T08:16:36;11.70;99.90
13976;DHT22;7062;49.792;9.946;2022-09-27T08:19:02;11.90;99.90
13976;DHT22;7062;49.792;9.946;2022-09-27T08:21:27;11.80;99.90
13976;DHT22;7062;49.792;9.946;2022-09-27T08:23:55;11.90;99.90
13976;DHT22;7062;49.792;9.946;2022-09-27T08:26:21;11.90;99.90
13976;DHT22;7062;49.792;9.946;2022-09-27T08:28:47;11.70;99.90
13976;DHT22;7062;49.792;9.946;2022-09-27T08:31:13;11.90;99.90
13976;DHT22;7062;49.792;9.946;2022-09-27T08:33:39;11.90;99.90
13976;DHT22;7062;49.792;9.946;2022-09-27T08:36:10;11.90;99.90
13976;DHT22;7062;49.792;9.946;2022-09-27T08:38:36;11.90;99.90
13976;DHT22;7062;49.792;9.946;2022-09-27T08:41:09;11.80;99.90
13976;DHT22;7062;49.792;9.946;2022-09-27T08:47:09;12.10;99.90
13976;DHT22;7062;49.792;9.946;2022-09-27T08:50:03;12.50;99.90
13976;DHT22;7062;49.792;9.946;2022-09-27T08:55:31;12.90;99.90
13976;DHT22;7062;49.792;9.946;2022-09-27T08:58:03;12.80;99.90
13976;DHT22;7062;49.792;9.946;2022-09-27T09:00:29;12.70;99.90
13976;DHT22;7062;49.792;9.946;2022-09-27T09:02:56;12.50;99.90
13976;DHT22;7062;49.792;9.946;2022-09-27T09:05:29;12.40;99.90
13976;DHT22;7062;49.792;9.946;2022-09-27T09:16:47;11.80;99.90
13976;DHT22;7062;49.792;9.946;2022-09-27T09:20:09;11.80;99.90
13976;DHT22;7062;49.792;9.946;2022-09-27T09:33:18;11.90;99.90
13976;DHT22;7062;49.792;9.946;2022-09-27T09:35:49;12.00;99.90
13976;DHT22;7062;49.792;9.946;2022-09-27T09:38:22;12.00;99.90
13976;DHT22;7062;49.792;9.946;2022-09-27T09:41:04;12.30;99.90
13976;DHT22;7062;49.792;9.946;2022-09-27T09:43:43;12.30;99.90
13976;DHT22;7062;49.792;9.946;2022-09-27T09:46:21;12.40;99.90
13976;DHT22;7062;49.792;9.946;2022-09-27T09:48:55;12.60;99.90
13976;DHT22;7062;49.792;9.946;2022-09-27T09:51:27;12.80;99.90
13976;DHT22;7062;49.792;9.946;2022-09-27T09:56:29;13.00;99.90
13976;DHT22;7062;49.792;9.946;2022-09-27T09:59:02;13.00;99.90
13976;DHT22;7062;49.792;9.946;2022-09-27T10:01:45;12.90;99.90
13976;DHT22;7062;49.792;9.946;2022-09-27T10:04:25;12.90;99.90
13976;DHT22;7062;49.792;9.946;2022-09-27T10:06:52;12.70;99.90
13976;DHT22;7062;49.792;9.946;2022-09-27T10:09:23;12.80;99.90
13976;DHT22;7062;49.792;9.946;2022-09-27T10:11:51;12.80;99.90
13976;DHT22;7062;49.792;9.946;2022-09-27T10:14:19;13.00;99.90
13976;DHT22;7062;49.792;9.946;2022-09-27T10:16:48;13.10;99.90
13976;DHT22;7062;49.792;9.946;2022-09-27T10:19:34;13.10;99.90
13976;DHT22;7062;49.792;9.946;2022-09-27T10:24:53;12.80;99.90
13976;DHT22;7062;49.792;9.946;2022-09-27T10:27:20;12.70;99.90
13976;DHT22;7062;49.792;9.946;2022-09-27T10:29:55;12.80;99.90
13976;DHT22;7062;49.792;9.946;2022-09-27T10:32:25;12.80;99.90
13976;DHT22;7062;49.792;9.946;2022-09-27T10:34:52;12.80;99.90
13976;DHT22;7062;49.792;9.946;2022-09-27T10:37:20;12.60;99.90
13976;DHT22;7062;49.792;9.946;2022-09-27T10:39:49;12.70;99.90
13976;DHT22;7062;49.792;9.946;2022-09-27T10:44:57;12.80;99.90
13976;DHT22;7062;49.792;9.946;2022-09-27T10:47:24;13.00;99.90
13976;DHT22;7062;49.792;9.946;2022-09-27T10:49:51;13.20;99.90
13976;DHT22;7062;49.792;9.946;2022-09-27T10:52:26;13.40;99.90
13976;DHT22;7062;49.792;9.946;2022-09-27T10:54:54;13.70;99.90
13976;DHT22;7062;49.792;9.946;2022-09-27T10:57:22;14.20;99.90
13976;DHT22;7062;49.792;9.946;2022-09-27T10:59:55;14.90;99.90
13976;DHT22;7062;49.792;9.946;2022-09-27T11:02:35;16.60;99.90
13976;DHT22;7062;49.792;9.946;2022-09-27T11:05:14;18.00;99.90
13976;DHT22;7062;49.792;9.946;2022-09-27T11:07:59;17.70;99.90
13976;DHT22;7062;49.792;9.946;2022-09-27T11:10:34;16.40;99.90
13976;DHT22;7062;49.792;9.946;2022-09-27T11:13:14;15.70;99.90
13976;DHT22;7062;49.792;9.946;2022-09-27T11:15:57;15.10;99.90
13976;DHT22;7062;49.792;9.946;2022-09-27T11:24:10;15.00;99.90
13976;DHT22;7062;49.792;9.946;2022-09-27T11:48:29;15.80;99.90
13976;DHT22;7062;49.792;9.946;2022-09-27T11:51:11;15.40;99.90
13976;DHT22;7062;49.792;9.946;2022-09-27T11:57:18;14.70;99.90
13976;DHT22;7062;49.792;9.946;2022-09-27T12:13:40;13.00;99.90
13976;DHT22;7062;49.792;9.946;2022-09-27T12:16:09;12.90;99.90
13976;DHT22;7062;49.792;9.946;2022-09-27T12:18:37;12.90;99.90
13976;DHT22;7062;49.792;9.946;2022-09-27T12:21:05;12.70;99.90
13976;DHT22;7062;49.792;9.946;2022-09-27T12:23:44;12.40;99.90
13976;DHT22;7062;49.792;9.946;2022-09-27T12:26:25;12.50;99.90
13976;DHT22;7062;49.792;9.946;2022-09-27T12:29:14;12.60;99.90
13976;DHT22;7062;49.792;9.946;2022-09-27T12:34:43;12.30;99.90
13976;DHT22;7062;49.792;9.946;2022-09-27T12:37:27;12.40;99.90
13976;DHT22;7062;49.792;9.946;2022-09-27T12:40:11;12.80;99.90
13976;DHT22;7062;49.792;9.946;2022-09-27T12:42:43;13.30;99.90
13976;DHT22;7062;49.792;9.946;2022-09-27T12:45:13;13.50;99.90
13976;DHT22;7062;49.792;9.946;2022-09-27T12:50:43;13.40;99.90
13976;DHT22;7062;49.792;9.946;2022-09-27T12:53:23;13.40;99.90
13976;DHT22;7062;49.792;9.946;2022-09-27T12:56:15;13.50;99.90
13976;DHT22;7062;49.792;9.946;2022-09-27T13:13:26;13.80;99.90
13976;DHT22;7062;49.792;9.946;2022-09-27T13:15:57;13.90;99.90
13976;DHT22;7062;49.792;9.946;2022-09-27T13:21:05;13.60;99.90
13976;DHT22;7062;49.792;9.946;2022-09-27T13:31:04;14.40;99.90
13976;DHT22;7062;49.792;9.946;2022-09-27T13:39:25;15.10;99.90
13976;DHT22;7062;49.792;9.946;2022-09-27T13:47:46;15.10;99.90
13976;DHT22;7062;49.792;9.946;2022-09-27T13:49:54;14.80;99.90
13976;DHT22;7062;49.792;9.946;2022-09-27T13:52:35;14.30;99.90
13976;DHT22;7062;49.792;9.946;2022-09-27T13:55:36;14.30;99.90
13976;DHT22;7062;49.792;9.946;2022-09-27T13:57:56;14.40;99.90
13976;DHT22;7062;49.792;9.946;2022-09-27T14:00:26;14.30;99.90
13976;DHT22;7062;49.792;9.946;2022-09-27T14:05:45;14.10;99.90
13976;DHT22;7062;49.792;9.946;2022-09-27T14:08:26;13.90;99.90
13976;DHT22;7062;49.792;9.946;2022-09-27T14:10:53;13.60;99.90
13976;DHT22;7062;49.792;9.946;2022-09-27T14:13:20;13.50;99.90
13976;DHT22;7062;49.792;9.946;2022-09-27T14:15:47;13.40;99.90
13976;DHT22;7062;49.792;9.946;2022-09-27T14:18:14;13.40;99.90
13976;DHT22;7062;49.792;9.946;2022-09-27T14:20:43;13.70;99.90
13976;DHT22;7062;49.792;9.946;2022-09-27T14:23:30;13.70;99.90
13976;DHT22;7062;49.792;9.946;2022-09-27T14:25:55;13.60;99.90
13976;DHT22;7062;49.792;9.946;2022-09-27T14:28:26;13.80;99.90
13976;DHT22;7062;49.792;9.946;2022-09-27T14:33:32;13.80;99.90
13976;DHT22;7062;49.792;9.946;2022-09-27T14:35:59;13.90;99.90
13976;DHT22;7062;49.792;9.946;2022-09-27T14:38:44;13.60;99.90
13976;DHT22;7062;49.792;9.946;2022-09-27T14:41:12;13.70;99.90
13976;DHT22;7062;49.792;9.946;2022-09-27T14:43:44;13.60;99.90
13976;DHT22;7062;49.792;9.946;2022-09-27T14:46:30;13.70;99.90
13976;DHT22;7062;49.792;9.946;2022-09-27T14:48:56;13.60;99.90
13976;DHT22;7062;49.792;9.946;2022-09-27T14:51:29;13.70;99.90
13976;DHT22;7062;49.792;9.946;2022-09-27T14:53:57;13.70;99.90
13976;DHT22;7062;49.792;9.946;2022-09-27T14:56:33;13.60;99.90
13976;DHT22;7062;49.792;9.946;2022-09-27T14:59:09;13.30;99.90
13976;DHT22;7062;49.792;9.946;2022-09-27T15:01:37;13.20;99.90
13976;DHT22;7062;49.792;9.946;2022-09-27T15:04:12;13.10;99.90
13976;DHT22;7062;49.792;9.946;2022-09-27T15:06:39;13.10;99.90
13976;DHT22;7062;49.792;9.946;2022-09-27T15:09:05;12.90;99.90
13976;DHT22;7062;49.792;9.946;2022-09-27T15:11:31;13.00;99.90
13976;DHT22;7062;49.792;9.946;2022-09-27T15:13:59;13.00;99.90
13976;DHT22;7062;49.792;9.946;2022-09-27T15:16:27;13.00;99.90
13976;DHT22;7062;49.792;9.946;2022-09-27T15:19:00;12.90;99.90
13976;DHT22;7062;49.792;9.946;2022-09-27T15:21:33;12.90;99.90
13976;DHT22;7062;49.792;9.946;2022-09-27T15:23:59;12.90;99.90
13976;DHT22;7062;49.792;9.946;2022-09-27T15:26:43;12.90;99.90
13976;DHT22;7062;49.792;9.946;2022-09-27T15:29:21;12.80;99.90
13976;DHT22;7062;49.792;9.946;2022-09-27T15:31:59;12.80;99.90
13976;DHT22;7062;49.792;9.946;2022-09-27T15:34:26;12.90;99.90
13976;DHT22;7062;49.792;9.946;2022-09-27T15:36:56;12.80;99.90
13976;DHT22;7062;49.792;9.946;2022-09-27T15:39:38;12.90;99.90
13976;DHT22;7062;49.792;9.946;2022-09-27T15:42:13;12.90;99.90
13976;DHT22;7062;49.792;9.946;2022-09-27T15:55:12;12.40;99.90
13976;DHT22;7062;49.792;9.946;2022-09-27T15:57:39;12.40;99.90
13976;DHT22;7062;49.792;9.946;2022-09-27T16:00:05;12.40;99.90
13976;DHT22;7062;49.792;9.946;2022-09-27T16:02:31;12.40;99.90
13976;DHT22;7062;49.792;9.946;2022-09-27T16:04:57;12.30;99.90
13976;DHT22;7062;49.792;9.946;2022-09-27T16:07:23;12.30;99.90
13976;DHT22;7062;49.792;9.946;2022-09-27T16:09:48;12.40;99.90
13976;DHT22;7062;49.792;9.946;2022-09-27T16:12:16;12.50;99.90
13976;DHT22;7062;49.792;9.946;2022-09-27T16:14:42;12.40;99.90
13976;DHT22;7062;49.792;9.946;2022-09-27T16:17:08;12.50;99.90
13976;DHT22;7062;49.792;9.946;2022-09-27T16:19:34;12.40;99.90
13976;DHT22;7062;49.792;9.946;2022-09-27T16:22:00;12.30;99.90
13976;DHT22;7062;49.792;9.946;2022-09-27T16:24:28;12.20;99.90
13976;DHT22;7062;49.792;9.946;2022-09-27T16:26:54;12.20;99.90
13976;DHT22;7062;49.792;9.946;2022-09-27T16:29:19;12.20;99.90
13976;DHT22;7062;49.792;9.946;2022-09-27T16:31:45;12.20;99.90
13976;DHT22;7062;49.792;9.946;2022-09-27T16:34:12;12.20;99.90
13976;DHT22;7062;49.792;9.946;2022-09-27T16:36:38;12.10;99.90
13976;DHT22;7062;49.792;9.946;2022-09-27T16:39:06;12.20;99.90
13976;DHT22;7062;49.792;9.946;2022-09-27T16:41:32;12.10;99.90
13976;DHT22;7062;49.792;9.946;2022-09-27T16:43:59;11.90;99.90
13976;DHT22;7062;49.792;9.946;2022-09-27T16:46:29;11.80;99.90
13976;DHT22;7062;49.792;9.946;2022-09-27T16:48:57;11.70;99.90
13976;DHT22;7062;49.792;9.946;2022-09-27T16:51:22;11.70;99.90
13976;DHT22;7062;49.792;9.946;2022-09-27T16:54:07;11.70;99.90
13976;DHT22;7062;49.792;9.946;2022-09-27T16:56:35;11.60;99.90
13976;DHT22;7062;49.792;9.946;2022-09-27T16:59:01;11.60;99.90
13976;DHT22;7062;49.792;9.946;2022-09-27T17:01:29;11.50;99.90
13976;DHT22;7062;49.792;9.946;2022-09-27T17:03:55;11.50;99.90
13976;DHT22;7062;49.792;9.946;2022-09-27T17:06:22;11.40;99.90
13976;DHT22;7062;49.792;9.946;2022-09-27T17:08:48;11.30;99.90
13976;DHT22;7062;49.792;9.946;2022-09-27T17:11:15;11.30;99.90
13976;DHT22;7062;49.792;9.946;2022-09-27T17:13:42;11.20;99.90
13976;DHT22;7062;49.792;9.946;2022-09-27T17:16:09;11.20;99.90
13976;DHT22;7062;49.792;9.946;2022-09-27T17:18:36;11.10;99.90
13976;DHT22;7062;49.792;9.946;2022-09-27T17:21:03;11.10;99.90
13976;DHT22;7062;49.792;9.946;2022-09-27T17:23:31;11.10;99.90
13976;DHT22;7062;49.792;9.946;2022-09-27T17:26:11;11.00;99.90
13976;DHT22;7062;49.792;9.946;2022-09-27T17:28:38;10.90;99.90
13976;DHT22;7062;49.792;9.946;2022-09-27T17:31:09;10.90;99.90
13976;DHT22;7062;49.792;9.946;2022-09-27T17:33:46;10.80;99.90
13976;DHT22;7062;49.792;9.946;2022-09-27T17:36:16;10.80;99.90
13976;DHT22;7062;49.792;9.946;2022-09-27T17:38:44;10.80;99.90
13976;DHT22;7062;49.792;9.946;2022-09-27T17:41:12;10.80;99.90
13976;DHT22;7062;49.792;9.946;2022-09-27T17:43:40;10.70;99.90
13976;DHT22;7062;49.792;9.946;2022-09-27T17:46:20;10.80;99.90
13976;DHT22;7062;49.792;9.946;2022-09-27T17:48:47;10.70;99.90
13976;DHT22;7062;49.792;9.946;2022-09-27T17:51:33;10.60;99.90
13976;DHT22;7062;49.792;9.946;2022-09-27T17:53:59;10.70;99.90
13976;DHT22;7062;49.792;9.946;2022-09-27T17:56:25;10.60;99.90
13976;DHT22;7062;49.792;9.946;2022-09-27T17:58:52;10.60;99.90
13976;DHT22;7062;49.792;9.946;2022-09-27T18:01:20;10.60;99.90
13976;DHT22;7062;49.792;9.946;2022-09-27T18:03:46;10.50;99.90
13976;DHT22;7062;49.792;9.946;2022-09-27T18:06:14;10.50;99.90
13976;DHT22;7062;49.792;9.946;2022-09-27T18:08:41;10.40;99.90
13976;DHT22;7062;49.792;9.946;2022-09-27T18:11:12;10.40;99.90
13976;DHT22;7062;49.792;9.946;2022-09-27T18:13:39;10.40;99.90
13976;DHT22;7062;49.792;9.946;2022-09-27T18:16:15;10.40;99.90
13976;DHT22;7062;49.792;9.946;2022-09-27T18:18:42;10.40;99.90
13976;DHT22;7062;49.792;9.946;2022-09-27T18:21:10;10.40;99.90
13976;DHT22;7062;49.792;9.946;2022-09-27T18:23:39;10.30;99.90
13976;DHT22;7062;49.792;9.946;2022-09-27T18:26:05;10.30;99.90
13976;DHT22;7062;49.792;9.946;2022-09-27T18:28:36;10.30;99.90
13976;DHT22;7062;49.792;9.946;2022-09-27T18:31:07;10.30;99.90
13976;DHT22;7062;49.792;9.946;2022-09-27T18:33:34;10.20;99.90
13976;DHT22;7062;49.792;9.946;2022-09-27T18:38:30;10.10;99.90
13976;DHT22;7062;49.792;9.946;2022-09-27T18:40:57;10.00;99.90
13976;DHT22;7062;49.792;9.946;2022-09-27T18:43:28;10.00;99.90
13976;DHT22;7062;49.792;9.946;2022-09-27T18:45:53;10.00;99.90
13976;DHT22;7062;49.792;9.946;2022-09-27T18:48:19;10.00;99.90
13976;DHT22;7062;49.792;9.946;2022-09-27T18:50:45;10.00;99.90
13976;DHT22;7062;49.792;9.946;2022-09-27T18:53:11;10.00;99.90
13976;DHT22;7062;49.792;9.946;2022-09-27T18:55:37;10.00;99.90
13976;DHT22;7062;49.792;9.946;2022-09-27T18:58:03;10.00;99.90
13976;DHT22;7062;49.792;9.946;2022-09-27T19:00:29;9.90;99.90
13976;DHT22;7062;49.792;9.946;2022-09-27T19:02:56;9.90;99.90
13976;DHT22;7062;49.792;9.946;2022-09-27T19:05:21;9.90;99.90
13976;DHT22;7062;49.792;9.946;2022-09-27T19:07:47;9.90;99.90
13976;DHT22;7062;49.792;9.946;2022-09-27T19:10:13;9.80;99.90
13976;DHT22;7062;49.792;9.946;2022-09-27T19:12:39;9.80;99.90
13976;DHT22;7062;49.792;9.946;2022-09-27T19:15:06;9.80;99.90
13976;DHT22;7062;49.792;9.946;2022-09-27T19:17:32;9.80;99.90